Etusivu
METAR-TAF:

METAR-TAF

Lentoasemat :

Burgos, Espanja

Leveyspiiri: 42-22N, Pituuspiiri: 003-38W, korkeus merenpinnasta: 894 m

Tämänhetkinen sää

Tämä raportti tehtiin 16 minuuttia sitten, kello 15.30 UTC
Tuuli 7 kn idästä/koillisesta
Lämpötila 3°C
Kosteus 87%
Ilmanpaine 1017 hPa
Näkyvyys 10 km tai enemmän
Hajanaisia pilviä 2100 ft:n korkeudessa
Hajonneita pilviä 3300 ft:n korkeudessa
Hajonneita pilviä 5000 ft:n korkeudessa

METAR: LEBG 081530Z 07007KT 9999 SCT021 BKN033 BKN050 03/01 Q1017

Aika: 16:46 (15:46 UTC)


TAF: puuttuu

Säähavainnot ja -ennusteet yli 4000 lentoasemalta (METAR- ja TAF-raportit).

Käytössä olevat sääasemat on merkitty karttaan keltaisilla ja punaisilla pisteillä.

Aseta hiiri pisteen päälle nähdäksesi sääaseman nimen.

Klikkaa sitten nähdäksesi säähavainnot ja -ennusteet.

Kartan vaihtaminen: klikkaa mustalla rastilla varustettuja vihreitä pisteitä, niin voit zoomata sisään; viivalla varustettua vihreää pistettä, niin voit zoomata ulos tai vihreitä nuolia, niin pääset viereisille kartoille.


METAR-TAF: